Welcome to Trans World Virtual Airlines!

Welcome TWVA's Newest Pilot:

TWA2313 Bryan Heald

Not a Trans World pilot yet?
Apply Now!




Sign-in with your pilot id or email, or register

Flight TWA633-A

  • Submitted By: Austin Hill
  • Departure Airport: Lambert-Saint Louis International Airport (KSTL)
  • Arrival Airport: New Orleans International Airport (KMSY)
  • Aircraft: B737-800 (N4112TW)
  • Flight Time: 02.11
  • Date Submitted: 05/21/2018
  • Route: STL CGI HLI LBY RQR KMSY
  • Status: Accepted
Flight Details
Gross Revenue:
(159 load / $ 265.00 per unit
$ 42, 135.00
Fuel Cost:
(8896 fuel used @ 0.8 / unit)
$ 7, 116.80

Additional Log Information:

View Log

FS[17:59] Aircraft Title - Boeing 737-800
FS[17:59] Aircraft Model - B738
FS[17:59] Flight Number TWA633-A
FS[17:59] Departure KSTL
FS[17:59] Destination KMSY
FS[17:59] Boarding
FS[18:07] Pushing Back
FS[18:13] Taxiing to Runway
FS[18:24] Taking Off
FS[18:25] Taking Off
FS[18:25] 174kts
FS[18:25] pitch angle 8 degrees
FS[18:25] 20766 (lbs) of fuel onboard
FS[18:25] Climbing
FS[18:44] TOC Reached
FS[18:44] Cruise 37000
FS[19:28] TOD Reached
FS[19:28] Descending
FS[19:45] On Approach
FS[20:00] Landing Rate -108fpm
FS[20:00] 13138 (lbs) of fuel onboard
FS[20:00] pitch angle 7 degrees
FS[20:01] Taxiing to Gate
FS[20:07] Arrived
FS[20:08] Max Sim Rate: 1x
FS[20:08] kACARS_Free Version 1.0.1.1

Comments

Commenter Comment
Austin Hill KSTL 211757Z 20004KT 10SM BKN023 24/17 A3004 // KMSY 211940Z 12013KT 10SM FEW030 SCT110 VCTS 31/22 A2997

Route Map